sensor_id;sensor_type;location;lat;lon;timestamp;P1;durP1;ratioP1;P2;durP2;ratioP2
24713;SDS011;12820;51.580;5.010;2022-08-18T00:02:36;35.78;;;18.45;;
24713;SDS011;12820;51.580;5.010;2022-08-18T00:07:44;31.52;;;17.85;;
24713;SDS011;12820;51.580;5.010;2022-08-18T00:12:48;34.83;;;18.13;;
24713;SDS011;12820;51.580;5.010;2022-08-18T00:17:50;33.92;;;18.65;;
24713;SDS011;12820;51.580;5.010;2022-08-18T00:22:52;32.55;;;19.60;;
24713;SDS011;12820;51.580;5.010;2022-08-18T00:27:57;32.72;;;20.20;;
24713;SDS011;12820;51.580;5.010;2022-08-18T00:32:59;39.55;;;22.08;;
24713;SDS011;12820;51.580;5.010;2022-08-18T00:38:03;38.58;;;21.08;;
24713;SDS011;12820;51.580;5.010;2022-08-18T00:43:10;37.50;;;21.55;;
24713;SDS011;12820;51.580;5.010;2022-08-18T00:48:14;36.70;;;20.65;;
24713;SDS011;12820;51.580;5.010;2022-08-18T00:53:36;39.92;;;21.23;;
24713;SDS011;12820;51.580;5.010;2022-08-18T00:58:43;47.50;;;22.83;;
24713;SDS011;12820;51.580;5.010;2022-08-18T01:03:51;34.53;;;20.45;;
24713;SDS011;12820;51.580;5.010;2022-08-18T01:08:57;41.20;;;21.65;;
24713;SDS011;12820;51.580;5.010;2022-08-18T01:13:59;40.15;;;20.80;;
24713;SDS011;12820;51.580;5.010;2022-08-18T01:19:01;40.42;;;21.83;;
24713;SDS011;12820;51.580;5.010;2022-08-18T01:24:28;34.58;;;19.92;;
24713;SDS011;12820;51.580;5.010;2022-08-18T01:29:53;34.88;;;19.48;;
24713;SDS011;12820;51.580;5.010;2022-08-18T01:34:55;38.95;;;20.75;;
24713;SDS011;12820;51.580;5.010;2022-08-18T01:39:57;32.92;;;18.92;;
24713;SDS011;12820;51.580;5.010;2022-08-18T01:45:19;33.20;;;18.55;;
24713;SDS011;12820;51.580;5.010;2022-08-18T01:50:21;39.30;;;20.88;;
24713;SDS011;12820;51.580;5.010;2022-08-18T01:55:23;35.85;;;19.73;;
24713;SDS011;12820;51.580;5.010;2022-08-18T02:00:27;32.78;;;19.70;;
24713;SDS011;12820;51.580;5.010;2022-08-18T02:05:35;36.03;;;20.63;;
24713;SDS011;12820;51.580;5.010;2022-08-18T02:10:41;35.40;;;20.90;;
24713;SDS011;12820;51.580;5.010;2022-08-18T02:15:43;34.63;;;19.85;;
24713;SDS011;12820;51.580;5.010;2022-08-18T02:20:46;37.15;;;19.40;;
24713;SDS011;12820;51.580;5.010;2022-08-18T02:25:48;36.97;;;19.55;;
24713;SDS011;12820;51.580;5.010;2022-08-18T02:30:51;28.95;;;16.85;;
24713;SDS011;12820;51.580;5.010;2022-08-18T02:35:53;37.10;;;18.30;;
24713;SDS011;12820;51.580;5.010;2022-08-18T02:40:56;27.13;;;17.15;;
24713;SDS011;12820;51.580;5.010;2022-08-18T02:46:01;25.35;;;14.57;;
24713;SDS011;12820;51.580;5.010;2022-08-18T02:51:07;27.73;;;15.80;;
24713;SDS011;12820;51.580;5.010;2022-08-18T02:56:17;24.85;;;14.82;;
24713;SDS011;12820;51.580;5.010;2022-08-18T03:01:42;27.58;;;14.73;;
24713;SDS011;12820;51.580;5.010;2022-08-18T03:06:46;28.45;;;15.02;;
24713;SDS011;12820;51.580;5.010;2022-08-18T03:11:48;23.88;;;13.57;;
24713;SDS011;12820;51.580;5.010;2022-08-18T03:16:50;26.63;;;14.60;;
24713;SDS011;12820;51.580;5.010;2022-08-18T03:21:56;24.52;;;14.65;;
24713;SDS011;12820;51.580;5.010;2022-08-18T03:27:04;26.15;;;14.13;;
24713;SDS011;12820;51.580;5.010;2022-08-18T03:32:07;25.70;;;14.15;;
24713;SDS011;12820;51.580;5.010;2022-08-18T03:37:09;23.17;;;14.15;;
24713;SDS011;12820;51.580;5.010;2022-08-18T03:42:12;26.25;;;14.82;;
24713;SDS011;12820;51.580;5.010;2022-08-18T03:47:14;23.75;;;13.80;;
24713;SDS011;12820;51.580;5.010;2022-08-18T03:52:16;22.27;;;12.98;;
24713;SDS011;12820;51.580;5.010;2022-08-18T03:57:18;28.33;;;14.10;;
24713;SDS011;12820;51.580;5.010;2022-08-18T04:02:20;24.65;;;14.15;;
24713;SDS011;12820;51.580;5.010;2022-08-18T04:07:22;21.88;;;13.55;;
24713;SDS011;12820;51.580;5.010;2022-08-18T04:12:24;29.30;;;13.88;;
24713;SDS011;12820;51.580;5.010;2022-08-18T04:17:27;23.77;;;14.30;;
24713;SDS011;12820;51.580;5.010;2022-08-18T04:22:29;26.48;;;14.45;;
24713;SDS011;12820;51.580;5.010;2022-08-18T04:27:34;22.63;;;13.63;;
24713;SDS011;12820;51.580;5.010;2022-08-18T04:32:40;24.10;;;12.82;;
24713;SDS011;12820;51.580;5.010;2022-08-18T04:37:42;22.73;;;13.30;;
24713;SDS011;12820;51.580;5.010;2022-08-18T04:42:44;22.10;;;13.50;;
24713;SDS011;12820;51.580;5.010;2022-08-18T04:47:46;23.83;;;13.88;;
24713;SDS011;12820;51.580;5.010;2022-08-18T04:52:49;24.00;;;14.60;;
24713;SDS011;12820;51.580;5.010;2022-08-18T04:58:09;26.25;;;14.63;;
24713;SDS011;12820;51.580;5.010;2022-08-18T05:03:11;26.65;;;15.50;;
24713;SDS011;12820;51.580;5.010;2022-08-18T05:08:14;28.30;;;15.60;;
24713;SDS011;12820;51.580;5.010;2022-08-18T05:13:16;24.00;;;13.77;;
24713;SDS011;12820;51.580;5.010;2022-08-18T05:18:18;27.02;;;14.80;;
24713;SDS011;12820;51.580;5.010;2022-08-18T05:23:27;26.35;;;15.23;;
24713;SDS011;12820;51.580;5.010;2022-08-18T05:28:30;26.35;;;14.35;;
24713;SDS011;12820;51.580;5.010;2022-08-18T05:33:33;28.30;;;14.90;;
24713;SDS011;12820;51.580;5.010;2022-08-18T05:44:13;30.42;;;16.48;;
24713;SDS011;12820;51.580;5.010;2022-08-18T05:49:18;28.20;;;16.35;;
24713;SDS011;12820;51.580;5.010;2022-08-18T05:54:21;32.25;;;16.13;;
24713;SDS011;12820;51.580;5.010;2022-08-18T05:59:43;30.40;;;16.38;;
24713;SDS011;12820;51.580;5.010;2022-08-18T06:09:54;31.15;;;16.60;;
24713;SDS011;12820;51.580;5.010;2022-08-18T06:14:59;28.88;;;16.45;;
24713;SDS011;12820;51.580;5.010;2022-08-18T06:20:17;29.65;;;17.10;;
24713;SDS011;12820;51.580;5.010;2022-08-18T06:25:32;33.58;;;17.38;;
24713;SDS011;12820;51.580;5.010;2022-08-18T06:30:49;34.75;;;18.35;;
24713;SDS011;12820;51.580;5.010;2022-08-18T06:36:08;34.47;;;17.88;;
24713;SDS011;12820;51.580;5.010;2022-08-18T06:41:34;36.75;;;18.73;;
24713;SDS011;12820;51.580;5.010;2022-08-18T06:52:36;29.40;;;16.58;;
24713;SDS011;12820;51.580;5.010;2022-08-18T06:57:52;31.55;;;16.23;;
24713;SDS011;12820;51.580;5.010;2022-08-18T07:08:32;26.63;;;15.05;;
24713;SDS011;12820;51.580;5.010;2022-08-18T07:13:41;26.48;;;15.57;;
24713;SDS011;12820;51.580;5.010;2022-08-18T07:18:45;26.85;;;14.70;;
24713;SDS011;12820;51.580;5.010;2022-08-18T07:23:51;23.73;;;14.18;;
24713;SDS011;12820;51.580;5.010;2022-08-18T07:29:20;25.60;;;14.25;;
24713;SDS011;12820;51.580;5.010;2022-08-18T07:39:37;24.42;;;14.90;;
24713;SDS011;12820;51.580;5.010;2022-08-18T07:44:52;27.73;;;15.43;;
24713;SDS011;12820;51.580;5.010;2022-08-18T07:50:01;24.13;;;13.73;;
24713;SDS011;12820;51.580;5.010;2022-08-18T07:55:31;24.83;;;13.98;;
24713;SDS011;12820;51.580;5.010;2022-08-18T08:00:38;25.75;;;13.88;;
24713;SDS011;12820;51.580;5.010;2022-08-18T08:06:09;24.27;;;13.73;;
24713;SDS011;12820;51.580;5.010;2022-08-18T08:11:34;24.50;;;14.65;;
24713;SDS011;12820;51.580;5.010;2022-08-18T08:16:49;26.38;;;15.32;;
24713;SDS011;12820;51.580;5.010;2022-08-18T08:22:06;23.45;;;14.60;;
24713;SDS011;12820;51.580;5.010;2022-08-18T08:38:02;21.48;;;12.50;;
24713;SDS011;12820;51.580;5.010;2022-08-18T08:43:30;28.85;;;16.30;;
24713;SDS011;12820;51.580;5.010;2022-08-18T08:48:42;23.90;;;13.27;;
24713;SDS011;12820;51.580;5.010;2022-08-18T08:53:50;22.23;;;12.70;;
24713;SDS011;12820;51.580;5.010;2022-08-18T08:58:58;19.92;;;12.88;;
24713;SDS011;12820;51.580;5.010;2022-08-18T09:10:23;14.45;;;9.93;;
24713;SDS011;12820;51.580;5.010;2022-08-18T09:33:01;9.80;;;7.22;;
24713;SDS011;12820;51.580;5.010;2022-08-18T09:38:25;10.10;;;7.15;;
24713;SDS011;12820;51.580;5.010;2022-08-18T09:54:30;7.93;;;5.45;;
24713;SDS011;12820;51.580;5.010;2022-08-18T10:04:39;8.02;;;6.10;;
24713;SDS011;12820;51.580;5.010;2022-08-18T10:21:27;6.05;;;4.63;;
24713;SDS011;12820;51.580;5.010;2022-08-18T10:37:00;8.27;;;4.90;;
24713;SDS011;12820;51.580;5.010;2022-08-18T10:47:32;7.57;;;5.40;;
24713;SDS011;12820;51.580;5.010;2022-08-18T10:52:43;10.00;;;7.30;;
24713;SDS011;12820;51.580;5.010;2022-08-18T11:03:54;8.07;;;5.35;;
24713;SDS011;12820;51.580;5.010;2022-08-18T11:09:29;8.60;;;5.72;;
24713;SDS011;12820;51.580;5.010;2022-08-18T11:19:50;7.30;;;5.45;;
24713;SDS011;12820;51.580;5.010;2022-08-18T11:24:54;7.78;;;5.30;;
24713;SDS011;12820;51.580;5.010;2022-08-18T11:30:00;6.85;;;4.78;;
24713;SDS011;12820;51.580;5.010;2022-08-18T11:35:06;8.60;;;5.40;;
24713;SDS011;12820;51.580;5.010;2022-08-18T11:56:03;7.82;;;5.35;;
24713;SDS011;12820;51.580;5.010;2022-08-18T12:06:52;9.07;;;6.18;;
24713;SDS011;12820;51.580;5.010;2022-08-18T12:12:02;12.00;;;6.63;;
24713;SDS011;12820;51.580;5.010;2022-08-18T12:17:14;13.80;;;6.40;;
24713;SDS011;12820;51.580;5.010;2022-08-18T12:22:21;8.13;;;6.10;;
24713;SDS011;12820;51.580;5.010;2022-08-18T12:27:25;8.73;;;5.18;;
24713;SDS011;12820;51.580;5.010;2022-08-18T12:32:34;7.82;;;5.45;;
24713;SDS011;12820;51.580;5.010;2022-08-18T12:37:56;7.07;;;4.68;;
24713;SDS011;12820;51.580;5.010;2022-08-18T12:43:15;8.00;;;5.30;;
24713;SDS011;12820;51.580;5.010;2022-08-18T12:48:18;8.75;;;5.40;;
24713;SDS011;12820;51.580;5.010;2022-08-18T12:53:40;9.90;;;6.65;;
24713;SDS011;12820;51.580;5.010;2022-08-18T12:59:02;8.38;;;5.85;;
24713;SDS011;12820;51.580;5.010;2022-08-18T13:04:06;9.45;;;7.07;;
24713;SDS011;12820;51.580;5.010;2022-08-18T13:09:14;9.07;;;6.35;;
24713;SDS011;12820;51.580;5.010;2022-08-18T13:14:37;12.15;;;6.00;;
24713;SDS011;12820;51.580;5.010;2022-08-18T13:19:44;11.23;;;6.38;;
24713;SDS011;12820;51.580;5.010;2022-08-18T13:24:46;10.15;;;6.90;;
24713;SDS011;12820;51.580;5.010;2022-08-18T13:29:48;10.27;;;6.28;;
24713;SDS011;12820;51.580;5.010;2022-08-18T13:34:52;9.32;;;6.85;;
24713;SDS011;12820;51.580;5.010;2022-08-18T13:39:57;8.45;;;6.00;;
24713;SDS011;12820;51.580;5.010;2022-08-18T13:45:02;8.73;;;6.38;;
24713;SDS011;12820;51.580;5.010;2022-08-18T13:50:25;10.45;;;6.53;;
24713;SDS011;12820;51.580;5.010;2022-08-18T13:55:30;8.30;;;5.68;;
24713;SDS011;12820;51.580;5.010;2022-08-18T14:00:33;7.18;;;5.35;;
24713;SDS011;12820;51.580;5.010;2022-08-18T14:05:36;9.27;;;6.22;;
24713;SDS011;12820;51.580;5.010;2022-08-18T14:10:55;7.72;;;5.60;;
24713;SDS011;12820;51.580;5.010;2022-08-18T14:16:01;8.57;;;5.80;;
24713;SDS011;12820;51.580;5.010;2022-08-18T14:21:04;8.27;;;5.75;;
24713;SDS011;12820;51.580;5.010;2022-08-18T14:26:24;9.18;;;6.10;;
24713;SDS011;12820;51.580;5.010;2022-08-18T14:31:45;9.45;;;6.47;;
24713;SDS011;12820;51.580;5.010;2022-08-18T14:36:48;9.23;;;6.35;;
24713;SDS011;12820;51.580;5.010;2022-08-18T14:41:54;9.32;;;6.30;;
24713;SDS011;12820;51.580;5.010;2022-08-18T14:46:59;11.32;;;6.88;;
24713;SDS011;12820;51.580;5.010;2022-08-18T14:52:01;9.88;;;6.57;;
24713;SDS011;12820;51.580;5.010;2022-08-18T14:57:11;9.50;;;7.33;;
24713;SDS011;12820;51.580;5.010;2022-08-18T15:02:13;12.15;;;8.57;;
24713;SDS011;12820;51.580;5.010;2022-08-18T15:07:16;11.30;;;8.48;;
24713;SDS011;12820;51.580;5.010;2022-08-18T15:12:24;11.02;;;7.60;;
24713;SDS011;12820;51.580;5.010;2022-08-18T15:17:30;8.82;;;6.45;;
24713;SDS011;12820;51.580;5.010;2022-08-18T15:22:42;12.18;;;7.75;;
24713;SDS011;12820;51.580;5.010;2022-08-18T15:28:04;10.18;;;7.63;;
24713;SDS011;12820;51.580;5.010;2022-08-18T15:33:17;8.43;;;6.60;;
24713;SDS011;12820;51.580;5.010;2022-08-18T15:38:25;10.10;;;7.70;;
24713;SDS011;12820;51.580;5.010;2022-08-18T15:43:29;9.95;;;6.68;;
24713;SDS011;12820;51.580;5.010;2022-08-18T15:48:33;10.45;;;7.85;;
24713;SDS011;12820;51.580;5.010;2022-08-18T15:53:35;13.30;;;7.72;;
24713;SDS011;12820;51.580;5.010;2022-08-18T15:58:41;10.33;;;6.93;;
24713;SDS011;12820;51.580;5.010;2022-08-18T16:03:43;10.40;;;5.53;;
24713;SDS011;12820;51.580;5.010;2022-08-18T16:08:50;10.30;;;7.50;;
24713;SDS011;12820;51.580;5.010;2022-08-18T16:13:54;10.48;;;7.35;;
24713;SDS011;12820;51.580;5.010;2022-08-18T16:18:56;11.73;;;7.43;;
24713;SDS011;12820;51.580;5.010;2022-08-18T16:23:59;12.88;;;7.68;;
24713;SDS011;12820;51.580;5.010;2022-08-18T16:29:01;10.32;;;7.00;;
24713;SDS011;12820;51.580;5.010;2022-08-18T16:34:03;11.02;;;7.53;;
24713;SDS011;12820;51.580;5.010;2022-08-18T16:39:06;10.45;;;7.72;;
24713;SDS011;12820;51.580;5.010;2022-08-18T16:44:09;12.10;;;7.78;;
24713;SDS011;12820;51.580;5.010;2022-08-18T16:49:12;11.05;;;8.00;;
24713;SDS011;12820;51.580;5.010;2022-08-18T16:54:15;10.40;;;7.55;;
24713;SDS011;12820;51.580;5.010;2022-08-18T16:59:17;9.23;;;6.20;;
24713;SDS011;12820;51.580;5.010;2022-08-18T17:04:38;5.22;;;3.72;;
24713;SDS011;12820;51.580;5.010;2022-08-18T17:09:41;7.93;;;4.28;;
24713;SDS011;12820;51.580;5.010;2022-08-18T17:14:43;6.00;;;4.07;;
24713;SDS011;12820;51.580;5.010;2022-08-18T17:19:46;8.32;;;5.55;;
24713;SDS011;12820;51.580;5.010;2022-08-18T17:24:48;6.22;;;3.92;;
24713;SDS011;12820;51.580;5.010;2022-08-18T17:35:04;7.00;;;4.57;;
24713;SDS011;12820;51.580;5.010;2022-08-18T17:40:17;7.03;;;4.43;;
24713;SDS011;12820;51.580;5.010;2022-08-18T17:45:39;5.55;;;4.00;;
24713;SDS011;12820;51.580;5.010;2022-08-18T17:50:44;5.68;;;4.07;;
24713;SDS011;12820;51.580;5.010;2022-08-18T17:56:18;6.85;;;4.20;;
24713;SDS011;12820;51.580;5.010;2022-08-18T18:01:23;7.53;;;4.75;;
24713;SDS011;12820;51.580;5.010;2022-08-18T18:11:36;6.30;;;3.92;;
24713;SDS011;12820;51.580;5.010;2022-08-18T18:16:50;5.43;;;3.80;;
24713;SDS011;12820;51.580;5.010;2022-08-18T18:22:08;6.00;;;4.07;;
24713;SDS011;12820;51.580;5.010;2022-08-18T18:27:28;7.78;;;3.80;;
24713;SDS011;12820;51.580;5.010;2022-08-18T18:32:35;6.47;;;4.30;;
24713;SDS011;12820;51.580;5.010;2022-08-18T18:38:01;8.57;;;4.20;;
24713;SDS011;12820;51.580;5.010;2022-08-18T19:00:34;6.47;;;4.30;;
24713;SDS011;12820;51.580;5.010;2022-08-18T19:10:55;7.68;;;4.70;;
24713;SDS011;12820;51.580;5.010;2022-08-18T19:16:04;8.68;;;5.13;;
24713;SDS011;12820;51.580;5.010;2022-08-18T19:21:25;10.60;;;4.85;;
24713;SDS011;12820;51.580;5.010;2022-08-18T19:26:51;8.10;;;4.60;;
24713;SDS011;12820;51.580;5.010;2022-08-18T19:32:08;8.68;;;4.78;;
24713;SDS011;12820;51.580;5.010;2022-08-18T19:37:23;6.85;;;4.65;;
24713;SDS011;12820;51.580;5.010;2022-08-18T19:42:36;10.93;;;5.10;;
24713;SDS011;12820;51.580;5.010;2022-08-18T19:52:59;9.23;;;5.25;;
24713;SDS011;12820;51.580;5.010;2022-08-18T20:14:57;8.75;;;5.82;;
24713;SDS011;12820;51.580;5.010;2022-08-18T20:20:09;7.78;;;5.10;;
24713;SDS011;12820;51.580;5.010;2022-08-18T20:30:30;8.38;;;5.78;;
24713;SDS011;12820;51.580;5.010;2022-08-18T20:36:06;8.85;;;5.88;;
24713;SDS011;12820;51.580;5.010;2022-08-18T20:46:37;10.80;;;4.88;;
24713;SDS011;12820;51.580;5.010;2022-08-18T20:52:02;7.78;;;5.70;;
24713;SDS011;12820;51.580;5.010;2022-08-18T20:57:14;9.77;;;5.45;;
24713;SDS011;12820;51.580;5.010;2022-08-18T21:02:37;9.43;;;5.10;;
24713;SDS011;12820;51.580;5.010;2022-08-18T21:07:56;9.82;;;5.65;;
24713;SDS011;12820;51.580;5.010;2022-08-18T21:18:54;9.25;;;5.80;;
24713;SDS011;12820;51.580;5.010;2022-08-18T21:23:59;9.23;;;6.10;;
24713;SDS011;12820;51.580;5.010;2022-08-18T21:29:04;10.52;;;6.63;;
24713;SDS011;12820;51.580;5.010;2022-08-18T21:34:33;11.65;;;6.57;;
24713;SDS011;12820;51.580;5.010;2022-08-18T21:39:49;11.65;;;6.20;;
24713;SDS011;12820;51.580;5.010;2022-08-18T21:45:00;13.65;;;7.38;;
24713;SDS011;12820;51.580;5.010;2022-08-18T21:50:07;11.73;;;6.75;;
24713;SDS011;12820;51.580;5.010;2022-08-18T21:55:18;10.00;;;6.65;;
24713;SDS011;12820;51.580;5.010;2022-08-18T22:00:26;10.23;;;6.38;;
24713;SDS011;12820;51.580;5.010;2022-08-18T22:05:31;10.98;;;6.75;;
24713;SDS011;12820;51.580;5.010;2022-08-18T22:22:49;13.07;;;7.28;;
24713;SDS011;12820;51.580;5.010;2022-08-18T22:28:09;11.32;;;7.45;;
24713;SDS011;12820;51.580;5.010;2022-08-18T22:33:11;10.88;;;6.90;;
24713;SDS011;12820;51.580;5.010;2022-08-18T22:38:14;13.60;;;7.53;;
24713;SDS011;12820;51.580;5.010;2022-08-18T22:43:16;10.15;;;6.72;;
24713;SDS011;12820;51.580;5.010;2022-08-18T22:48:19;11.98;;;7.10;;
24713;SDS011;12820;51.580;5.010;2022-08-18T22:53:21;11.65;;;7.32;;
24713;SDS011;12820;51.580;5.010;2022-08-18T22:58:23;12.90;;;6.32;;
24713;SDS011;12820;51.580;5.010;2022-08-18T23:03:29;11.15;;;6.30;;
24713;SDS011;12820;51.580;5.010;2022-08-18T23:08:32;12.65;;;7.22;;
24713;SDS011;12820;51.580;5.010;2022-08-18T23:13:54;12.23;;;7.05;;
24713;SDS011;12820;51.580;5.010;2022-08-18T23:18:57;14.23;;;8.18;;
24713;SDS011;12820;51.580;5.010;2022-08-18T23:24:03;14.43;;;8.05;;
24713;SDS011;12820;51.580;5.010;2022-08-18T23:29:06;13.52;;;8.95;;
24713;SDS011;12820;51.580;5.010;2022-08-18T23:34:10;14.07;;;8.85;;
24713;SDS011;12820;51.580;5.010;2022-08-18T23:39:16;16.85;;;9.07;;
24713;SDS011;12820;51.580;5.010;2022-08-18T23:44:18;14.73;;;9.60;;
24713;SDS011;12820;51.580;5.010;2022-08-18T23:49:25;13.98;;;9.07;;
24713;SDS011;12820;51.580;5.010;2022-08-18T23:54:31;18.80;;;10.85;;
24713;SDS011;12820;51.580;5.010;2022-08-18T23:59:36;14.38;;;9.43;;
